sensor_id;sensor_type;location;lat;lon;timestamp;temperature;humidity
15409;DHT22;7803;48.130;13.788;2023-08-08T00:00:26;22.00;99.90
15409;DHT22;7803;48.130;13.788;2023-08-08T00:03:29;22.00;99.90
15409;DHT22;7803;48.130;13.788;2023-08-08T00:06:31;22.00;99.90
15409;DHT22;7803;48.130;13.788;2023-08-08T00:09:33;22.00;99.90
15409;DHT22;7803;48.130;13.788;2023-08-08T00:12:36;22.00;99.90
15409;DHT22;7803;48.130;13.788;2023-08-08T00:15:37;22.00;99.90
15409;DHT22;7803;48.130;13.788;2023-08-08T00:18:41;22.00;99.90
15409;DHT22;7803;48.130;13.788;2023-08-08T00:21:43;22.00;99.90
15409;DHT22;7803;48.130;13.788;2023-08-08T00:24:45;22.00;99.90
15409;DHT22;7803;48.130;13.788;2023-08-08T00:27:47;22.00;99.90
15409;DHT22;7803;48.130;13.788;2023-08-08T00:30:49;22.00;99.90
15409;DHT22;7803;48.130;13.788;2023-08-08T00:33:52;22.00;99.90
15409;DHT22;7803;48.130;13.788;2023-08-08T00:36:54;22.00;99.90
15409;DHT22;7803;48.130;13.788;2023-08-08T00:39:56;21.90;99.90
15409;DHT22;7803;48.130;13.788;2023-08-08T00:42:58;21.90;99.90
15409;DHT22;7803;48.130;13.788;2023-08-08T00:46:00;21.90;99.90
15409;DHT22;7803;48.130;13.788;2023-08-08T00:49:03;21.90;99.90
15409;DHT22;7803;48.130;13.788;2023-08-08T00:52:06;21.90;99.90
15409;DHT22;7803;48.130;13.788;2023-08-08T00:55:08;22.00;99.90
15409;DHT22;7803;48.130;13.788;2023-08-08T00:58:10;22.00;99.90
15409;DHT22;7803;48.130;13.788;2023-08-08T01:01:13;21.90;99.90
15409;DHT22;7803;48.130;13.788;2023-08-08T01:04:16;22.00;99.90
15409;DHT22;7803;48.130;13.788;2023-08-08T01:07:23;21.90;99.90
15409;DHT22;7803;48.130;13.788;2023-08-08T01:10:32;21.90;99.90
15409;DHT22;7803;48.130;13.788;2023-08-08T01:13:36;22.00;99.80
15409;DHT22;7803;48.130;13.788;2023-08-08T01:16:39;21.90;99.70
15409;DHT22;7803;48.130;13.788;2023-08-08T01:19:43;21.90;99.70
15409;DHT22;7803;48.130;13.788;2023-08-08T01:22:50;21.90;99.70
15409;DHT22;7803;48.130;13.788;2023-08-08T01:25:58;21.90;99.60
15409;DHT22;7803;48.130;13.788;2023-08-08T01:29:01;21.90;99.60
15409;DHT22;7803;48.130;13.788;2023-08-08T01:32:03;21.90;99.60
15409;DHT22;7803;48.130;13.788;2023-08-08T01:35:06;21.90;99.50
15409;DHT22;7803;48.130;13.788;2023-08-08T01:38:23;21.90;99.60
15409;DHT22;7803;48.130;13.788;2023-08-08T01:41:28;21.90;99.50
15409;DHT22;7803;48.130;13.788;2023-08-08T01:44:31;21.90;99.50
15409;DHT22;7803;48.130;13.788;2023-08-08T01:47:33;21.90;99.60
15409;DHT22;7803;48.130;13.788;2023-08-08T01:50:35;21.90;99.50
15409;DHT22;7803;48.130;13.788;2023-08-08T01:53:38;21.90;99.50
15409;DHT22;7803;48.130;13.788;2023-08-08T01:56:41;21.90;99.40
15409;DHT22;7803;48.130;13.788;2023-08-08T01:59:45;21.90;99.30
15409;DHT22;7803;48.130;13.788;2023-08-08T02:02:47;21.90;99.20
15409;DHT22;7803;48.130;13.788;2023-08-08T02:05:49;21.90;99.10
15409;DHT22;7803;48.130;13.788;2023-08-08T02:08:51;21.80;99.00
15409;DHT22;7803;48.130;13.788;2023-08-08T02:11:54;21.80;99.00
15409;DHT22;7803;48.130;13.788;2023-08-08T02:14:56;21.90;99.00
15409;DHT22;7803;48.130;13.788;2023-08-08T02:17:59;21.90;99.00
15409;DHT22;7803;48.130;13.788;2023-08-08T02:21:01;21.90;99.00
15409;DHT22;7803;48.130;13.788;2023-08-08T02:24:03;21.90;99.00
15409;DHT22;7803;48.130;13.788;2023-08-08T02:27:07;21.90;98.90
15409;DHT22;7803;48.130;13.788;2023-08-08T02:30:10;21.80;98.90
15409;DHT22;7803;48.130;13.788;2023-08-08T02:33:12;21.80;98.80
15409;DHT22;7803;48.130;13.788;2023-08-08T02:36:14;21.80;98.80
15409;DHT22;7803;48.130;13.788;2023-08-08T02:39:16;21.80;98.80
15409;DHT22;7803;48.130;13.788;2023-08-08T02:42:20;21.80;98.80
15409;DHT22;7803;48.130;13.788;2023-08-08T02:45:22;21.80;98.70
15409;DHT22;7803;48.130;13.788;2023-08-08T02:48:23;21.80;98.70
15409;DHT22;7803;48.130;13.788;2023-08-08T02:51:25;21.80;98.80
15409;DHT22;7803;48.130;13.788;2023-08-08T02:54:27;21.80;98.60
15409;DHT22;7803;48.130;13.788;2023-08-08T02:57:31;21.80;98.50
15409;DHT22;7803;48.130;13.788;2023-08-08T03:00:33;21.80;98.50
15409;DHT22;7803;48.130;13.788;2023-08-08T03:03:35;21.80;98.50
15409;DHT22;7803;48.130;13.788;2023-08-08T03:06:37;21.80;98.40
15409;DHT22;7803;48.130;13.788;2023-08-08T03:09:38;21.80;98.30
15409;DHT22;7803;48.130;13.788;2023-08-08T03:12:42;21.80;98.40
15409;DHT22;7803;48.130;13.788;2023-08-08T03:15:44;21.80;98.40
15409;DHT22;7803;48.130;13.788;2023-08-08T03:18:46;21.80;98.30
15409;DHT22;7803;48.130;13.788;2023-08-08T03:21:48;21.80;98.20
15409;DHT22;7803;48.130;13.788;2023-08-08T03:24:50;21.70;98.20
15409;DHT22;7803;48.130;13.788;2023-08-08T03:27:53;21.80;98.20
15409;DHT22;7803;48.130;13.788;2023-08-08T03:30:55;21.80;98.30
15409;DHT22;7803;48.130;13.788;2023-08-08T03:33:57;21.70;98.20
15409;DHT22;7803;48.130;13.788;2023-08-08T03:36:59;21.80;98.20
15409;DHT22;7803;48.130;13.788;2023-08-08T03:40:01;21.70;98.20
15409;DHT22;7803;48.130;13.788;2023-08-08T03:43:05;21.80;98.20
15409;DHT22;7803;48.130;13.788;2023-08-08T03:46:07;21.70;98.00
15409;DHT22;7803;48.130;13.788;2023-08-08T03:49:09;21.80;98.00
15409;DHT22;7803;48.130;13.788;2023-08-08T03:52:11;21.80;98.00
15409;DHT22;7803;48.130;13.788;2023-08-08T03:55:13;21.70;97.90
15409;DHT22;7803;48.130;13.788;2023-08-08T03:58:17;21.70;98.20
15409;DHT22;7803;48.130;13.788;2023-08-08T04:01:19;21.70;97.80
15409;DHT22;7803;48.130;13.788;2023-08-08T04:04:21;21.70;97.80
15409;DHT22;7803;48.130;13.788;2023-08-08T04:07:23;21.70;98.00
15409;DHT22;7803;48.130;13.788;2023-08-08T04:10:25;21.80;99.90
15409;DHT22;7803;48.130;13.788;2023-08-08T04:13:29;21.80;99.90
15409;DHT22;7803;48.130;13.788;2023-08-08T04:16:31;21.80;99.90
15409;DHT22;7803;48.130;13.788;2023-08-08T04:19:33;21.90;99.90
15409;DHT22;7803;48.130;13.788;2023-08-08T04:22:35;21.90;99.90
15409;DHT22;7803;48.130;13.788;2023-08-08T04:25:37;21.90;99.90
15409;DHT22;7803;48.130;13.788;2023-08-08T04:28:41;21.90;99.90
15409;DHT22;7803;48.130;13.788;2023-08-08T04:31:42;22.00;99.90
15409;DHT22;7803;48.130;13.788;2023-08-08T04:34:44;21.90;99.90
15409;DHT22;7803;48.130;13.788;2023-08-08T04:37:46;21.90;99.90
15409;DHT22;7803;48.130;13.788;2023-08-08T04:40:48;21.90;99.90
15409;DHT22;7803;48.130;13.788;2023-08-08T04:43:52;21.90;98.80
15409;DHT22;7803;48.130;13.788;2023-08-08T04:46:54;21.90;97.20
15409;DHT22;7803;48.130;13.788;2023-08-08T04:49:56;21.90;95.60
15409;DHT22;7803;48.130;13.788;2023-08-08T04:52:58;21.90;95.00
15409;DHT22;7803;48.130;13.788;2023-08-08T04:56:00;21.90;95.10
15409;DHT22;7803;48.130;13.788;2023-08-08T04:59:03;21.90;95.20
15409;DHT22;7803;48.130;13.788;2023-08-08T05:02:05;21.90;95.40
15409;DHT22;7803;48.130;13.788;2023-08-08T05:05:08;21.90;95.90
15409;DHT22;7803;48.130;13.788;2023-08-08T05:08:10;21.90;96.10
15409;DHT22;7803;48.130;13.788;2023-08-08T05:11:12;21.90;96.20
15409;DHT22;7803;48.130;13.788;2023-08-08T05:14:15;21.90;96.30
15409;DHT22;7803;48.130;13.788;2023-08-08T05:17:17;21.80;96.40
15409;DHT22;7803;48.130;13.788;2023-08-08T05:20:19;21.90;96.60
15409;DHT22;7803;48.130;13.788;2023-08-08T05:23:21;21.90;96.70
15409;DHT22;7803;48.130;13.788;2023-08-08T05:26:23;21.90;96.90
15409;DHT22;7803;48.130;13.788;2023-08-08T05:29:27;21.80;97.00
15409;DHT22;7803;48.130;13.788;2023-08-08T05:32:29;21.80;97.10
15409;DHT22;7803;48.130;13.788;2023-08-08T05:35:31;21.90;97.20
15409;DHT22;7803;48.130;13.788;2023-08-08T05:38:33;21.90;97.40
15409;DHT22;7803;48.130;13.788;2023-08-08T05:41:35;21.90;97.50
15409;DHT22;7803;48.130;13.788;2023-08-08T05:44:38;21.90;97.60
15409;DHT22;7803;48.130;13.788;2023-08-08T05:47:42;21.80;97.60
15409;DHT22;7803;48.130;13.788;2023-08-08T05:50:44;21.90;97.80
15409;DHT22;7803;48.130;13.788;2023-08-08T05:53:46;21.90;97.90
15409;DHT22;7803;48.130;13.788;2023-08-08T05:56:48;21.80;97.90
15409;DHT22;7803;48.130;13.788;2023-08-08T05:59:51;21.80;98.00
15409;DHT22;7803;48.130;13.788;2023-08-08T06:02:53;21.90;98.10
15409;DHT22;7803;48.130;13.788;2023-08-08T06:05:55;21.90;98.20
15409;DHT22;7803;48.130;13.788;2023-08-08T06:08:57;21.80;98.30
15409;DHT22;7803;48.130;13.788;2023-08-08T06:11:59;21.90;98.50
15409;DHT22;7803;48.130;13.788;2023-08-08T06:15:03;21.90;98.60
15409;DHT22;7803;48.130;13.788;2023-08-08T06:18:06;21.80;98.70
15409;DHT22;7803;48.130;13.788;2023-08-08T06:21:07;21.90;98.80
15409;DHT22;7803;48.130;13.788;2023-08-08T06:24:09;21.90;98.90
15409;DHT22;7803;48.130;13.788;2023-08-08T06:27:13;21.90;99.00
15409;DHT22;7803;48.130;13.788;2023-08-08T06:30:16;21.90;99.00
15409;DHT22;7803;48.130;13.788;2023-08-08T06:33:18;21.90;99.20
15409;DHT22;7803;48.130;13.788;2023-08-08T06:36:20;21.90;99.20
15409;DHT22;7803;48.130;13.788;2023-08-08T06:39:22;21.90;99.30
15409;DHT22;7803;48.130;13.788;2023-08-08T06:42:24;21.90;99.40
15409;DHT22;7803;48.130;13.788;2023-08-08T06:45:27;21.90;99.40
15409;DHT22;7803;48.130;13.788;2023-08-08T06:48:29;21.90;99.40
15409;DHT22;7803;48.130;13.788;2023-08-08T06:51:32;21.90;99.50
15409;DHT22;7803;48.130;13.788;2023-08-08T06:54:34;22.00;99.60
15409;DHT22;7803;48.130;13.788;2023-08-08T06:57:36;22.00;99.60
15409;DHT22;7803;48.130;13.788;2023-08-08T07:00:39;22.00;99.70
15409;DHT22;7803;48.130;13.788;2023-08-08T07:03:41;22.00;99.80
15409;DHT22;7803;48.130;13.788;2023-08-08T07:06:44;22.00;99.90
15409;DHT22;7803;48.130;13.788;2023-08-08T07:09:46;21.90;99.80
15409;DHT22;7803;48.130;13.788;2023-08-08T07:12:49;22.00;99.90
15409;DHT22;7803;48.130;13.788;2023-08-08T07:15:52;21.90;99.90
15409;DHT22;7803;48.130;13.788;2023-08-08T07:18:55;22.00;99.90
15409;DHT22;7803;48.130;13.788;2023-08-08T07:21:57;22.00;99.90
15409;DHT22;7803;48.130;13.788;2023-08-08T07:24:59;22.00;99.90
15409;DHT22;7803;48.130;13.788;2023-08-08T07:28:01;22.00;99.90
15409;DHT22;7803;48.130;13.788;2023-08-08T07:31:04;22.00;99.90
15409;DHT22;7803;48.130;13.788;2023-08-08T07:34:06;22.00;99.90
15409;DHT22;7803;48.130;13.788;2023-08-08T07:37:08;22.00;99.90
15409;DHT22;7803;48.130;13.788;2023-08-08T07:40:15;22.00;99.90
15409;DHT22;7803;48.130;13.788;2023-08-08T07:43:18;22.00;99.90
15409;DHT22;7803;48.130;13.788;2023-08-08T07:46:22;22.00;99.90
15409;DHT22;7803;48.130;13.788;2023-08-08T07:49:24;22.00;99.90
15409;DHT22;7803;48.130;13.788;2023-08-08T07:52:26;22.00;99.90
15409;DHT22;7803;48.130;13.788;2023-08-08T07:55:28;22.00;99.90
15409;DHT22;7803;48.130;13.788;2023-08-08T07:58:31;22.00;99.90
15409;DHT22;7803;48.130;13.788;2023-08-08T08:01:35;22.00;99.90
15409;DHT22;7803;48.130;13.788;2023-08-08T08:04:37;22.00;99.90
15409;DHT22;7803;48.130;13.788;2023-08-08T08:07:39;22.00;99.90
15409;DHT22;7803;48.130;13.788;2023-08-08T08:10:41;22.00;99.90
15409;DHT22;7803;48.130;13.788;2023-08-08T08:13:44;22.00;99.90
15409;DHT22;7803;48.130;13.788;2023-08-08T08:16:47;22.10;99.90
15409;DHT22;7803;48.130;13.788;2023-08-08T08:19:50;22.00;99.90
15409;DHT22;7803;48.130;13.788;2023-08-08T08:22:52;22.00;99.90
15409;DHT22;7803;48.130;13.788;2023-08-08T08:25:54;22.10;99.90
15409;DHT22;7803;48.130;13.788;2023-08-08T08:28:56;22.00;99.90
15409;DHT22;7803;48.130;13.788;2023-08-08T08:31:59;22.00;99.90
15409;DHT22;7803;48.130;13.788;2023-08-08T08:35:02;22.00;99.90
15409;DHT22;7803;48.130;13.788;2023-08-08T08:38:04;22.00;99.90
15409;DHT22;7803;48.130;13.788;2023-08-08T08:41:08;22.00;99.90
15409;DHT22;7803;48.130;13.788;2023-08-08T08:44:14;22.00;99.90
15409;DHT22;7803;48.130;13.788;2023-08-08T08:47:20;22.00;99.90
15409;DHT22;7803;48.130;13.788;2023-08-08T08:50:23;22.10;99.90
15409;DHT22;7803;48.130;13.788;2023-08-08T08:53:27;22.00;99.90
15409;DHT22;7803;48.130;13.788;2023-08-08T08:56:30;22.10;99.90
15409;DHT22;7803;48.130;13.788;2023-08-08T08:59:33;22.00;99.90
15409;DHT22;7803;48.130;13.788;2023-08-08T09:02:36;22.10;99.90
15409;DHT22;7803;48.130;13.788;2023-08-08T09:05:39;22.10;99.90
15409;DHT22;7803;48.130;13.788;2023-08-08T09:08:42;22.10;99.90
15409;DHT22;7803;48.130;13.788;2023-08-08T09:11:49;22.10;99.90
15409;DHT22;7803;48.130;13.788;2023-08-08T09:14:54;22.10;99.90
15409;DHT22;7803;48.130;13.788;2023-08-08T09:17:59;22.00;99.90
15409;DHT22;7803;48.130;13.788;2023-08-08T09:21:01;22.10;99.90
15409;DHT22;7803;48.130;13.788;2023-08-08T09:24:04;22.10;99.90
15409;DHT22;7803;48.130;13.788;2023-08-08T09:27:06;22.10;99.90
15409;DHT22;7803;48.130;13.788;2023-08-08T09:30:09;22.10;99.90
15409;DHT22;7803;48.130;13.788;2023-08-08T09:33:13;22.10;99.90
15409;DHT22;7803;48.130;13.788;2023-08-08T09:36:15;22.10;99.90
15409;DHT22;7803;48.130;13.788;2023-08-08T09:39:17;22.10;99.90
15409;DHT22;7803;48.130;13.788;2023-08-08T09:42:20;22.20;99.90
15409;DHT22;7803;48.130;13.788;2023-08-08T09:45:22;22.30;99.90
15409;DHT22;7803;48.130;13.788;2023-08-08T09:48:29;22.30;99.90
15409;DHT22;7803;48.130;13.788;2023-08-08T09:51:32;22.30;99.90
15409;DHT22;7803;48.130;13.788;2023-08-08T09:54:36;22.30;99.90
15409;DHT22;7803;48.130;13.788;2023-08-08T09:57:39;22.30;99.90
15409;DHT22;7803;48.130;13.788;2023-08-08T10:00:43;22.40;99.90
15409;DHT22;7803;48.130;13.788;2023-08-08T10:03:46;22.40;99.90
15409;DHT22;7803;48.130;13.788;2023-08-08T10:06:49;22.50;99.90
15409;DHT22;7803;48.130;13.788;2023-08-08T10:09:51;22.50;99.90
15409;DHT22;7803;48.130;13.788;2023-08-08T10:12:54;22.50;99.90
15409;DHT22;7803;48.130;13.788;2023-08-08T10:15:56;22.60;99.90
15409;DHT22;7803;48.130;13.788;2023-08-08T10:19:01;22.60;99.90
15409;DHT22;7803;48.130;13.788;2023-08-08T10:22:04;22.60;99.90
15409;DHT22;7803;48.130;13.788;2023-08-08T10:25:07;22.70;99.90
15409;DHT22;7803;48.130;13.788;2023-08-08T10:28:11;22.70;99.90
15409;DHT22;7803;48.130;13.788;2023-08-08T10:31:19;22.70;99.90
15409;DHT22;7803;48.130;13.788;2023-08-08T10:34:27;23.00;99.90
15409;DHT22;7803;48.130;13.788;2023-08-08T10:37:38;23.20;99.90
15409;DHT22;7803;48.130;13.788;2023-08-08T10:40:42;23.30;99.90
15409;DHT22;7803;48.130;13.788;2023-08-08T10:43:49;23.40;99.90
15409;DHT22;7803;48.130;13.788;2023-08-08T10:46:52;23.30;99.90
15409;DHT22;7803;48.130;13.788;2023-08-08T10:50:06;23.30;99.90
15409;DHT22;7803;48.130;13.788;2023-08-08T10:53:09;23.20;99.90
15409;DHT22;7803;48.130;13.788;2023-08-08T10:56:13;23.20;99.90
15409;DHT22;7803;48.130;13.788;2023-08-08T10:59:17;23.10;99.90
15409;DHT22;7803;48.130;13.788;2023-08-08T11:02:20;23.10;99.90
15409;DHT22;7803;48.130;13.788;2023-08-08T11:05:24;23.10;99.90
15409;DHT22;7803;48.130;13.788;2023-08-08T11:08:27;23.10;99.90
15409;DHT22;7803;48.130;13.788;2023-08-08T11:11:36;23.00;99.90
15409;DHT22;7803;48.130;13.788;2023-08-08T11:14:38;23.00;99.90
15409;DHT22;7803;48.130;13.788;2023-08-08T11:17:40;23.00;99.90
15409;DHT22;7803;48.130;13.788;2023-08-08T11:20:44;23.00;99.90
15409;DHT22;7803;48.130;13.788;2023-08-08T11:23:47;22.90;99.90
15409;DHT22;7803;48.130;13.788;2023-08-08T11:26:49;22.90;99.90
15409;DHT22;7803;48.130;13.788;2023-08-08T11:29:52;22.90;99.90
15409;DHT22;7803;48.130;13.788;2023-08-08T11:32:54;22.90;99.90
15409;DHT22;7803;48.130;13.788;2023-08-08T11:35:58;22.90;99.90
15409;DHT22;7803;48.130;13.788;2023-08-08T11:39:01;22.90;99.90
15409;DHT22;7803;48.130;13.788;2023-08-08T11:42:08;22.80;99.90
15409;DHT22;7803;48.130;13.788;2023-08-08T11:45:10;22.90;99.90
15409;DHT22;7803;48.130;13.788;2023-08-08T11:48:13;22.90;99.90
15409;DHT22;7803;48.130;13.788;2023-08-08T11:51:16;22.80;99.90
15409;DHT22;7803;48.130;13.788;2023-08-08T11:54:19;22.80;99.90
15409;DHT22;7803;48.130;13.788;2023-08-08T11:57:21;22.80;99.90
15409;DHT22;7803;48.130;13.788;2023-08-08T12:00:27;22.80;99.90
15409;DHT22;7803;48.130;13.788;2023-08-08T12:03:29;22.80;99.90
15409;DHT22;7803;48.130;13.788;2023-08-08T12:06:32;22.80;99.90
15409;DHT22;7803;48.130;13.788;2023-08-08T12:09:37;22.70;99.90
15409;DHT22;7803;48.130;13.788;2023-08-08T12:12:39;22.70;99.90
15409;DHT22;7803;48.130;13.788;2023-08-08T12:15:42;22.70;99.90
15409;DHT22;7803;48.130;13.788;2023-08-08T12:18:44;22.70;99.90
15409;DHT22;7803;48.130;13.788;2023-08-08T12:21:48;22.70;99.90
15409;DHT22;7803;48.130;13.788;2023-08-08T12:24:50;22.70;99.90
15409;DHT22;7803;48.130;13.788;2023-08-08T12:27:52;22.70;99.90
15409;DHT22;7803;48.130;13.788;2023-08-08T12:30:54;22.70;99.90
15409;DHT22;7803;48.130;13.788;2023-08-08T12:33:55;22.60;99.90
15409;DHT22;7803;48.130;13.788;2023-08-08T12:36:59;22.60;99.90
15409;DHT22;7803;48.130;13.788;2023-08-08T12:40:01;22.60;99.90
15409;DHT22;7803;48.130;13.788;2023-08-08T12:43:06;22.60;99.90
15409;DHT22;7803;48.130;13.788;2023-08-08T12:46:09;22.60;99.90
15409;DHT22;7803;48.130;13.788;2023-08-08T12:49:10;22.60;99.90
15409;DHT22;7803;48.130;13.788;2023-08-08T12:52:14;22.60;99.90
15409;DHT22;7803;48.130;13.788;2023-08-08T12:55:16;22.60;99.90
15409;DHT22;7803;48.130;13.788;2023-08-08T12:58:19;22.60;99.90
15409;DHT22;7803;48.130;13.788;2023-08-08T13:01:21;22.60;99.90
15409;DHT22;7803;48.130;13.788;2023-08-08T13:04:23;22.50;99.90
15409;DHT22;7803;48.130;13.788;2023-08-08T13:07:27;22.60;99.90
15409;DHT22;7803;48.130;13.788;2023-08-08T13:10:29;22.60;99.90
15409;DHT22;7803;48.130;13.788;2023-08-08T13:13:31;22.50;99.90
15409;DHT22;7803;48.130;13.788;2023-08-08T13:16:33;22.50;99.90
15409;DHT22;7803;48.130;13.788;2023-08-08T13:19:35;22.50;99.90
15409;DHT22;7803;48.130;13.788;2023-08-08T13:22:38;22.50;99.90
15409;DHT22;7803;48.130;13.788;2023-08-08T13:25:43;22.50;99.90
15409;DHT22;7803;48.130;13.788;2023-08-08T13:28:45;22.50;99.90
15409;DHT22;7803;48.130;13.788;2023-08-08T13:31:47;22.50;99.90
15409;DHT22;7803;48.130;13.788;2023-08-08T13:34:49;22.50;99.90
15409;DHT22;7803;48.130;13.788;2023-08-08T13:37:52;22.50;99.90
15409;DHT22;7803;48.130;13.788;2023-08-08T13:40:55;22.50;99.90
15409;DHT22;7803;48.130;13.788;2023-08-08T13:43:57;22.50;99.90
15409;DHT22;7803;48.130;13.788;2023-08-08T13:46:59;22.50;99.90
15409;DHT22;7803;48.130;13.788;2023-08-08T13:50:01;22.50;99.90
15409;DHT22;7803;48.130;13.788;2023-08-08T13:53:05;22.50;99.90
15409;DHT22;7803;48.130;13.788;2023-08-08T13:56:07;22.50;99.90
15409;DHT22;7803;48.130;13.788;2023-08-08T13:59:09;22.40;99.90
15409;DHT22;7803;48.130;13.788;2023-08-08T14:02:11;22.50;99.90
15409;DHT22;7803;48.130;13.788;2023-08-08T14:05:13;22.40;99.90
15409;DHT22;7803;48.130;13.788;2023-08-08T14:08:17;22.40;99.90
15409;DHT22;7803;48.130;13.788;2023-08-08T14:11:20;22.40;99.90
15409;DHT22;7803;48.130;13.788;2023-08-08T14:14:22;22.40;99.90
15409;DHT22;7803;48.130;13.788;2023-08-08T14:17:24;22.40;99.90
15409;DHT22;7803;48.130;13.788;2023-08-08T14:20:26;22.40;99.90
15409;DHT22;7803;48.130;13.788;2023-08-08T14:23:29;22.40;99.90
15409;DHT22;7803;48.130;13.788;2023-08-08T14:26:31;22.50;99.90
15409;DHT22;7803;48.130;13.788;2023-08-08T14:29:33;22.50;99.90
15409;DHT22;7803;48.130;13.788;2023-08-08T14:32:35;22.50;99.90
15409;DHT22;7803;48.130;13.788;2023-08-08T14:35:37;22.50;99.90
15409;DHT22;7803;48.130;13.788;2023-08-08T14:38:41;22.50;99.90
15409;DHT22;7803;48.130;13.788;2023-08-08T14:41:42;22.50;99.90
15409;DHT22;7803;48.130;13.788;2023-08-08T14:44:44;22.50;99.90
15409;DHT22;7803;48.130;13.788;2023-08-08T14:47:46;22.50;99.90
15409;DHT22;7803;48.130;13.788;2023-08-08T14:50:48;22.50;99.90
15409;DHT22;7803;48.130;13.788;2023-08-08T14:53:52;22.40;99.90
15409;DHT22;7803;48.130;13.788;2023-08-08T14:56:54;22.40;99.90
15409;DHT22;7803;48.130;13.788;2023-08-08T14:59:58;22.40;99.90
15409;DHT22;7803;48.130;13.788;2023-08-08T15:03:00;22.50;99.90
15409;DHT22;7803;48.130;13.788;2023-08-08T15:06:02;22.40;99.90
15409;DHT22;7803;48.130;13.788;2023-08-08T15:09:06;22.40;99.90
15409;DHT22;7803;48.130;13.788;2023-08-08T15:12:08;22.40;99.90
15409;DHT22;7803;48.130;13.788;2023-08-08T15:15:10;22.40;99.90
15409;DHT22;7803;48.130;13.788;2023-08-08T15:18:12;22.40;99.90
15409;DHT22;7803;48.130;13.788;2023-08-08T15:21:14;22.40;99.90
15409;DHT22;7803;48.130;13.788;2023-08-08T15:24:21;22.40;99.90
15409;DHT22;7803;48.130;13.788;2023-08-08T15:27:23;22.40;99.90
15409;DHT22;7803;48.130;13.788;2023-08-08T15:30:25;22.40;99.90
15409;DHT22;7803;48.130;13.788;2023-08-08T15:33:27;22.40;99.90
15409;DHT22;7803;48.130;13.788;2023-08-08T15:36:29;22.40;99.90
15409;DHT22;7803;48.130;13.788;2023-08-08T15:39:33;22.50;99.90
15409;DHT22;7803;48.130;13.788;2023-08-08T15:42:35;22.50;99.90
15409;DHT22;7803;48.130;13.788;2023-08-08T15:45:37;22.40;99.90
15409;DHT22;7803;48.130;13.788;2023-08-08T15:48:39;22.40;99.90
15409;DHT22;7803;48.130;13.788;2023-08-08T15:51:41;22.40;99.90
15409;DHT22;7803;48.130;13.788;2023-08-08T15:54:45;22.40;99.90
15409;DHT22;7803;48.130;13.788;2023-08-08T15:57:47;22.40;99.90
15409;DHT22;7803;48.130;13.788;2023-08-08T16:00:49;22.40;99.90
15409;DHT22;7803;48.130;13.788;2023-08-08T16:03:51;22.40;99.90
15409;DHT22;7803;48.130;13.788;2023-08-08T16:06:53;22.40;99.90
15409;DHT22;7803;48.130;13.788;2023-08-08T16:09:56;22.30;99.90
15409;DHT22;7803;48.130;13.788;2023-08-08T16:12:58;22.40;99.90
15409;DHT22;7803;48.130;13.788;2023-08-08T16:16:00;22.40;99.90
15409;DHT22;7803;48.130;13.788;2023-08-08T16:19:03;22.40;99.90
15409;DHT22;7803;48.130;13.788;2023-08-08T16:22:05;22.40;99.90
15409;DHT22;7803;48.130;13.788;2023-08-08T16:25:09;22.40;99.90
15409;DHT22;7803;48.130;13.788;2023-08-08T16:28:11;22.40;99.90
15409;DHT22;7803;48.130;13.788;2023-08-08T16:31:13;22.40;99.90
15409;DHT22;7803;48.130;13.788;2023-08-08T16:34:14;22.40;99.90
15409;DHT22;7803;48.130;13.788;2023-08-08T16:37:17;22.40;99.90
15409;DHT22;7803;48.130;13.788;2023-08-08T16:40:20;22.30;99.90
15409;DHT22;7803;48.130;13.788;2023-08-08T16:43:22;22.30;99.90
15409;DHT22;7803;48.130;13.788;2023-08-08T16:46:24;22.30;99.90
15409;DHT22;7803;48.130;13.788;2023-08-08T16:49:26;22.30;99.90
15409;DHT22;7803;48.130;13.788;2023-08-08T16:52:28;22.30;99.90
15409;DHT22;7803;48.130;13.788;2023-08-08T16:55:31;22.30;99.90
15409;DHT22;7803;48.130;13.788;2023-08-08T16:58:33;22.40;99.90
15409;DHT22;7803;48.130;13.788;2023-08-08T17:01:35;22.30;99.90
15409;DHT22;7803;48.130;13.788;2023-08-08T17:04:42;22.30;99.90
15409;DHT22;7803;48.130;13.788;2023-08-08T17:07:46;22.30;99.90
15409;DHT22;7803;48.130;13.788;2023-08-08T17:10:51;22.30;99.90
15409;DHT22;7803;48.130;13.788;2023-08-08T17:13:56;22.30;99.90
15409;DHT22;7803;48.130;13.788;2023-08-08T17:17:00;22.30;99.90
15409;DHT22;7803;48.130;13.788;2023-08-08T17:20:05;22.30;99.90
15409;DHT22;7803;48.130;13.788;2023-08-08T17:23:09;22.30;99.90
15409;DHT22;7803;48.130;13.788;2023-08-08T17:26:15;22.30;99.90
15409;DHT22;7803;48.130;13.788;2023-08-08T17:29:19;22.30;99.90
15409;DHT22;7803;48.130;13.788;2023-08-08T17:32:23;22.30;99.90
15409;DHT22;7803;48.130;13.788;2023-08-08T17:35:28;22.30;99.90
15409;DHT22;7803;48.130;13.788;2023-08-08T17:38:32;22.30;99.90
15409;DHT22;7803;48.130;13.788;2023-08-08T17:41:37;22.30;99.90
15409;DHT22;7803;48.130;13.788;2023-08-08T17:44:42;22.30;99.90
15409;DHT22;7803;48.130;13.788;2023-08-08T17:47:45;22.20;99.90
15409;DHT22;7803;48.130;13.788;2023-08-08T17:50:49;22.20;99.90
15409;DHT22;7803;48.130;13.788;2023-08-08T17:53:53;22.20;99.90
15409;DHT22;7803;48.130;13.788;2023-08-08T17:56:58;22.20;99.90
15409;DHT22;7803;48.130;13.788;2023-08-08T18:00:03;22.20;99.90
15409;DHT22;7803;48.130;13.788;2023-08-08T18:03:07;22.20;99.90
15409;DHT22;7803;48.130;13.788;2023-08-08T18:06:12;22.20;99.90
15409;DHT22;7803;48.130;13.788;2023-08-08T18:09:18;22.20;99.90
15409;DHT22;7803;48.130;13.788;2023-08-08T18:12:28;22.20;99.90
15409;DHT22;7803;48.130;13.788;2023-08-08T18:15:36;22.30;99.90
15409;DHT22;7803;48.130;13.788;2023-08-08T18:18:43;22.20;99.90
15409;DHT22;7803;48.130;13.788;2023-08-08T18:21:48;22.20;99.90
15409;DHT22;7803;48.130;13.788;2023-08-08T18:25:09;22.20;99.90
15409;DHT22;7803;48.130;13.788;2023-08-08T18:28:32;22.20;99.90
15409;DHT22;7803;48.130;13.788;2023-08-08T18:31:41;22.20;99.90
15409;DHT22;7803;48.130;13.788;2023-08-08T18:34:48;22.20;99.90
15409;DHT22;7803;48.130;13.788;2023-08-08T18:37:59;22.20;99.90
15409;DHT22;7803;48.130;13.788;2023-08-08T18:41:05;22.20;99.90
15409;DHT22;7803;48.130;13.788;2023-08-08T18:44:11;22.20;99.90
15409;DHT22;7803;48.130;13.788;2023-08-08T18:47:17;22.20;99.90
15409;DHT22;7803;48.130;13.788;2023-08-08T18:50:23;22.20;99.90
15409;DHT22;7803;48.130;13.788;2023-08-08T18:53:27;22.20;99.90
15409;DHT22;7803;48.130;13.788;2023-08-08T18:56:31;22.20;99.90
15409;DHT22;7803;48.130;13.788;2023-08-08T18:59:37;22.30;99.90
15409;DHT22;7803;48.130;13.788;2023-08-08T19:02:41;22.20;99.90
15409;DHT22;7803;48.130;13.788;2023-08-08T19:05:45;22.20;99.90
15409;DHT22;7803;48.130;13.788;2023-08-08T19:08:50;22.20;99.90
15409;DHT22;7803;48.130;13.788;2023-08-08T19:11:54;22.30;99.90
15409;DHT22;7803;48.130;13.788;2023-08-08T19:15:00;22.20;99.90